Time;durP1;ratioP1;P1;durP2;ratioP2;P2;SDS_P1;SDS_P2;PMS_P1;PMS_P2;Temp;Humidity;BMP_temperature;BMP_pressure;BME280_temperature;BME280_humidity;BME280_pressure;Samples;Min_cycle;Max_cycle;Signal;HPM_P1;HPM_P2
2022/10/14 00:01:00;;;;;;;;;;;19.80;66.20;;;;;;5039645;27;90290;-58
2022/10/14 00:03:25;;;;;;;;;;;19.80;66.20;;;;;;5048898;27;90172;-52
2022/10/14 00:05:51;;;;;;;;;;;19.80;66.20;;;;;;5027783;27;91858;-56
2022/10/14 00:08:16;;;;;;;;;;;19.80;66.20;;;;;;5049075;27;90702;-58
2022/10/14 00:10:42;;;;;;;;;;;19.80;66.20;;;;;;5031565;27;90131;-56
2022/10/14 00:13:07;;;;;;;;;;;19.80;66.10;;;;;;5048646;27;90942;-57
2022/10/14 00:15:39;;;;;;;;;;;19.70;66.10;;;;;;5041613;27;91291;-58
2022/10/14 00:18:05;;;;;;;;;;;19.80;66.10;;;;;;5041699;27;90923;-58
2022/10/14 00:20:31;;;;;;;;;;;19.80;66.10;;;;;;5046004;27;90551;-55
2022/10/14 00:22:56;;;;;;;;;;;19.80;66.10;;;;;;5044451;27;89977;-55
2022/10/14 00:25:24;;;;;;;;;;;19.80;66.00;;;;;;5031786;27;92379;-59
2022/10/14 00:27:50;;;;;;;;;;;19.70;66.00;;;;;;5046388;27;90052;-57
2022/10/14 00:30:16;;;;;;;;;;;19.80;66.10;;;;;;5036374;27;91412;-57
2022/10/14 00:32:41;;;;;;;;;;;19.80;66.00;;;;;;5030779;27;94143;-59
2022/10/14 00:35:07;;;;;;;;;;;19.80;66.10;;;;;;5043575;27;90917;-59
2022/10/14 00:37:32;;;;;;;;;;;19.70;66.00;;;;;;5040193;27;89671;-58
2022/10/14 00:39:58;;;;;;;;;;;19.80;66.00;;;;;;5041496;27;90259;-58
2022/10/14 00:42:23;;;;;;;;;;;19.80;66.00;;;;;;5046613;27;90803;-56
2022/10/14 00:44:49;;;;;;;;;;;19.70;66.00;;;;;;5027921;27;90110;-58
2022/10/14 00:47:14;;;;;;;;;;;19.70;66.00;;;;;;5038680;27;91194;-58
2022/10/14 00:49:42;;;;;;;;;;;19.80;65.90;;;;;;5038286;27;90146;-58
2022/10/14 00:52:13;;;;;;;;;;;19.80;66.00;;;;;;5045609;27;89862;-59
2022/10/14 00:55:00;;;;;;;;;;;19.80;66.00;;;;;;5043430;27;90077;-56
2022/10/14 00:57:26;;;;;;;;;;;19.70;66.00;;;;;;5035567;27;94270;-58
2022/10/14 00:59:54;;;;;;;;;;;19.70;66.00;;;;;;5037768;27;89472;-59
2022/10/14 01:02:20;;;;;;;;;;;19.70;66.00;;;;;;5035777;27;90353;-58
2022/10/14 01:04:45;;;;;;;;;;;19.70;65.90;;;;;;5032193;27;90271;-59
2022/10/14 01:07:31;;;;;;;;;;;19.80;66.10;;;;;;5050751;27;91658;-56
2022/10/14 01:10:15;;;;;;;;;;;19.80;66.00;;;;;;5045588;27;92664;-55
2022/10/14 01:12:49;;;;;;;;;;;19.70;66.00;;;;;;5047514;27;90387;-57
2022/10/14 01:15:14;;;;;;;;;;;19.80;66.00;;;;;;5035849;27;91026;-56
2022/10/14 01:17:46;;;;;;;;;;;19.80;66.00;;;;;;5053738;27;90231;-55
2022/10/14 01:20:17;;;;;;;;;;;19.70;65.90;;;;;;5040973;27;90253;-57
2022/10/14 01:22:51;;;;;;;;;;;19.70;65.90;;;;;;5046021;27;90625;-56
2022/10/14 01:25:17;;;;;;;;;;;19.70;65.90;;;;;;5039833;27;90236;-58
2022/10/14 01:27:48;;;;;;;;;;;19.70;65.90;;;;;;5028193;27;95176;-56
2022/10/14 01:30:18;;;;;;;;;;;19.70;65.90;;;;;;5043475;27;90362;-59
2022/10/14 01:32:47;;;;;;;;;;;19.70;66.00;;;;;;5046730;27;92452;-58
2022/10/14 01:35:22;;;;;;;;;;;19.70;66.00;;;;;;5043759;27;90855;-56
2022/10/14 01:37:56;;;;;;;;;;;19.70;65.90;;;;;;5050702;27;90843;-59
2022/10/14 01:40:42;;;;;;;;;;;19.70;66.00;;;;;;5042297;27;91069;-55
2022/10/14 01:43:09;;;;;;;;;;;19.70;66.00;;;;;;5023036;27;89727;-55
2022/10/14 01:45:36;;;;;;;;;;;19.80;66.00;;;;;;5044596;27;90816;-58
2022/10/14 01:48:03;;;;;;;;;;;19.80;65.90;;;;;;5039461;27;92684;-57
2022/10/14 01:50:29;;;;;;;;;;;19.70;65.90;;;;;;5039783;27;95826;-56
2022/10/14 01:53:00;;;;;;;;;;;19.70;65.90;;;;;;5049139;27;89551;-58
2022/10/14 01:55:28;;;;;;;;;;;19.70;65.90;;;;;;5028777;27;89638;-59
2022/10/14 01:57:55;;;;;;;;;;;19.70;66.00;;;;;;5046317;27;91436;-58
2022/10/14 02:00:20;;;;;;;;;;;19.70;66.00;;;;;;5041959;27;89879;-56
2022/10/14 02:02:46;;;;;;;;;;;19.70;65.90;;;;;;5032547;27;89714;-58
2022/10/14 02:05:16;;;;;;;;;;;19.70;65.90;;;;;;5041323;27;91106;-56
2022/10/14 02:07:47;;;;;;;;;;;19.70;65.90;;;;;;5046544;27;90440;-58
2022/10/14 02:10:12;;;;;;;;;;;19.70;65.90;;;;;;5033857;27;90169;-56
2022/10/14 02:12:38;;;;;;;;;;;19.70;65.90;;;;;;5035123;27;92360;-56
2022/10/14 02:15:22;;;;;;;;;;;19.70;65.80;;;;;;5041683;27;92194;-58
2022/10/14 02:18:03;;;;;;;;;;;19.70;65.90;;;;;;5039547;27;90829;-56
2022/10/14 02:20:38;;;;;;;;;;;19.70;65.90;;;;;;5041288;27;90007;-57
2022/10/14 02:23:07;;;;;;;;;;;19.70;65.80;;;;;;5039645;27;95594;-59
2022/10/14 02:25:34;;;;;;;;;;;19.70;65.90;;;;;;5039660;27;90218;-58
2022/10/14 02:28:01;;;;;;;;;;;19.70;65.80;;;;;;5034963;27;90395;-58
2022/10/14 02:30:28;;;;;;;;;;;19.70;65.90;;;;;;5041071;27;90338;-57
2022/10/14 02:32:55;;;;;;;;;;;19.70;65.90;;;;;;5045877;27;92920;-58
2022/10/14 02:35:22;;;;;;;;;;;19.70;65.90;;;;;;5045926;27;90575;-57
2022/10/14 02:37:48;;;;;;;;;;;19.70;65.80;;;;;;5048796;27;90398;-59
2022/10/14 02:40:16;;;;;;;;;;;19.70;65.90;;;;;;5042053;27;90233;-58
2022/10/14 02:42:42;;;;;;;;;;;19.70;65.80;;;;;;5048762;27;89545;-58
2022/10/14 02:45:08;;;;;;;;;;;19.70;65.80;;;;;;5030436;27;90283;-58
2022/10/14 02:47:34;;;;;;;;;;;19.70;65.80;;;;;;5045420;27;90903;-58
2022/10/14 02:49:59;;;;;;;;;;;19.70;65.90;;;;;;5044534;27;90469;-57
2022/10/14 02:52:25;;;;;;;;;;;19.70;65.90;;;;;;5040464;27;90902;-58
2022/10/14 02:54:50;;;;;;;;;;;19.70;65.90;;;;;;5043818;27;89970;-58
2022/10/14 02:57:16;;;;;;;;;;;19.70;65.90;;;;;;5032006;27;94001;-58
2022/10/14 02:59:41;;;;;;;;;;;19.70;65.90;;;;;;5034062;27;94873;-58
2022/10/14 03:02:07;;;;;;;;;;;19.70;65.90;;;;;;5042721;27;89976;-56
2022/10/14 03:04:33;;;;;;;;;;;19.70;65.90;;;;;;5028081;27;89403;-58
2022/10/14 03:06:59;;;;;;;;;;;19.70;65.90;;;;;;5034872;27;92622;-58
2022/10/14 03:09:24;;;;;;;;;;;19.70;65.80;;;;;;5026820;27;89797;-57
2022/10/14 03:11:50;;;;;;;;;;;19.70;65.80;;;;;;5041049;27;90963;-57
2022/10/14 03:14:15;;;;;;;;;;;19.60;65.80;;;;;;5043581;27;89819;-56
2022/10/14 03:16:41;;;;;;;;;;;19.70;65.80;;;;;;5044030;27;89803;-59
2022/10/14 03:19:06;;;;;;;;;;;19.70;65.80;;;;;;5042041;27;92527;-57
2022/10/14 03:21:32;;;;;;;;;;;19.70;65.90;;;;;;5042301;27;90389;-58
2022/10/14 03:23:57;;;;;;;;;;;19.60;65.80;;;;;;5050114;27;89586;-58
2022/10/14 03:26:23;;;;;;;;;;;19.70;65.80;;;;;;5041214;27;91105;-55
2022/10/14 03:28:48;;;;;;;;;;;19.70;65.80;;;;;;5042223;27;89485;-58
2022/10/14 03:31:14;;;;;;;;;;;19.70;65.90;;;;;;5042100;27;93685;-57
2022/10/14 03:33:39;;;;;;;;;;;19.60;65.90;;;;;;5023058;27;90145;-56
2022/10/14 03:36:05;;;;;;;;;;;19.60;65.80;;;;;;5033940;27;91461;-58
2022/10/14 03:38:31;;;;;;;;;;;19.60;65.80;;;;;;5024509;27;90481;-57
2022/10/14 03:40:56;;;;;;;;;;;19.70;65.90;;;;;;5036089;27;93932;-56
2022/10/14 03:43:22;;;;;;;;;;;19.60;65.80;;;;;;5034836;27;90819;-57
2022/10/14 03:45:47;;;;;;;;;;;19.60;65.80;;;;;;5046818;27;91504;-59
2022/10/14 03:48:13;;;;;;;;;;;19.60;65.80;;;;;;5045088;27;89932;-59
2022/10/14 03:50:38;;;;;;;;;;;19.60;65.80;;;;;;5030376;27;90604;-57
2022/10/14 03:53:04;;;;;;;;;;;19.70;65.90;;;;;;5034170;27;90466;-57
2022/10/14 03:55:29;;;;;;;;;;;19.70;65.90;;;;;;5041733;27;90306;-57
2022/10/14 03:57:55;;;;;;;;;;;19.70;65.90;;;;;;5043116;27;90865;-56
2022/10/14 04:00:20;;;;;;;;;;;19.60;65.80;;;;;;5039909;27;90937;-58
2022/10/14 04:02:46;;;;;;;;;;;19.60;65.80;;;;;;5041034;27;91213;-58
2022/10/14 04:05:12;;;;;;;;;;;19.60;65.80;;;;;;5045405;27;90282;-57
2022/10/14 04:07:37;;;;;;;;;;;19.60;65.80;;;;;;5043761;27;93985;-56
2022/10/14 04:10:03;;;;;;;;;;;19.60;65.80;;;;;;5036670;27;93545;-58
2022/10/14 04:12:28;;;;;;;;;;;19.60;65.90;;;;;;5024356;27;90172;-58
2022/10/14 04:14:55;;;;;;;;;;;19.60;65.80;;;;;;5042359;27;90413;-57
2022/10/14 04:17:22;;;;;;;;;;;19.60;65.90;;;;;;5040919;27;91580;-58
2022/10/14 04:19:47;;;;;;;;;;;19.70;65.90;;;;;;5034364;27;94509;-58
2022/10/14 04:22:13;;;;;;;;;;;19.60;65.70;;;;;;5039847;27;90299;-59
2022/10/14 04:24:38;;;;;;;;;;;19.70;65.80;;;;;;5046174;27;91178;-58
2022/10/14 04:27:04;;;;;;;;;;;19.60;65.80;;;;;;5044888;27;91171;-56
2022/10/14 04:29:30;;;;;;;;;;;19.60;65.80;;;;;;5043179;27;92603;-57
2022/10/14 04:31:55;;;;;;;;;;;19.60;65.80;;;;;;5032409;27;93509;-58
2022/10/14 04:34:21;;;;;;;;;;;19.60;65.80;;;;;;5034315;27;90409;-57
2022/10/14 04:36:47;;;;;;;;;;;19.70;65.90;;;;;;5040692;27;93111;-57
2022/10/14 04:39:14;;;;;;;;;;;19.60;65.80;;;;;;5037634;27;90292;-59
2022/10/14 04:41:39;;;;;;;;;;;19.60;65.80;;;;;;5048032;27;89324;-57
2022/10/14 04:44:05;;;;;;;;;;;19.60;65.80;;;;;;5043959;27;90205;-58
2022/10/14 04:46:31;;;;;;;;;;;19.60;65.80;;;;;;5043649;27;89941;-58
2022/10/14 04:48:56;;;;;;;;;;;19.60;65.80;;;;;;5047334;27;90709;-58
2022/10/14 04:51:22;;;;;;;;;;;19.60;65.80;;;;;;5038805;27;90588;-56
2022/10/14 04:53:47;;;;;;;;;;;19.60;65.90;;;;;;5042321;27;90190;-60
2022/10/14 04:56:13;;;;;;;;;;;19.60;65.80;;;;;;5042473;27;90781;-58
2022/10/14 04:58:39;;;;;;;;;;;19.60;65.80;;;;;;5046547;27;89574;-58
2022/10/14 05:01:04;;;;;;;;;;;19.60;65.80;;;;;;5038426;27;89581;-58
2022/10/14 05:03:30;;;;;;;;;;;19.60;65.80;;;;;;5042563;27;91016;-59
2022/10/14 05:05:55;;;;;;;;;;;19.60;65.80;;;;;;5043452;27;91059;-58
2022/10/14 05:08:21;;;;;;;;;;;19.60;66.00;;;;;;5038676;27;91728;-57
2022/10/14 05:10:47;;;;;;;;;;;19.60;65.90;;;;;;5038122;27;89953;-56
2022/10/14 05:13:12;;;;;;;;;;;19.60;65.90;;;;;;5033803;27;90824;-59
2022/10/14 05:15:38;;;;;;;;;;;19.60;65.90;;;;;;5041537;27;90790;-58
2022/10/14 05:18:04;;;;;;;;;;;19.60;65.90;;;;;;5036212;27;91859;-58
2022/10/14 05:20:29;;;;;;;;;;;19.60;66.00;;;;;;5039518;27;92282;-58
2022/10/14 05:22:55;;;;;;;;;;;19.60;65.90;;;;;;5046963;27;90284;-59
2022/10/14 05:25:20;;;;;;;;;;;19.60;66.00;;;;;;5045846;27;95915;-57
2022/10/14 05:27:45;;;;;;;;;;;19.60;65.90;;;;;;5049482;27;91173;-55
2022/10/14 05:30:11;;;;;;;;;;;19.60;65.90;;;;;;5045187;27;89269;-58
2022/10/14 05:32:37;;;;;;;;;;;19.60;66.00;;;;;;5044555;27;90054;-57
2022/10/14 05:35:03;;;;;;;;;;;19.60;66.00;;;;;;5044085;27;91419;-56
2022/10/14 05:37:28;;;;;;;;;;;19.60;66.10;;;;;;5048645;27;90988;-58
2022/10/14 05:39:54;;;;;;;;;;;19.60;66.10;;;;;;5038959;27;90012;-58
2022/10/14 05:42:19;;;;;;;;;;;19.60;66.10;;;;;;5052014;27;91279;-58
2022/10/14 05:44:45;;;;;;;;;;;19.60;66.10;;;;;;5043003;27;90315;-58
2022/10/14 05:47:10;;;;;;;;;;;19.60;66.20;;;;;;5040707;27;91635;-59
2022/10/14 05:49:36;;;;;;;;;;;19.60;66.20;;;;;;5038033;27;91864;-59
2022/10/14 05:52:01;;;;;;;;;;;19.60;66.40;;;;;;5045089;27;89492;-58
2022/10/14 05:54:27;;;;;;;;;;;19.60;66.30;;;;;;5047084;27;89111;-59
2022/10/14 05:56:53;;;;;;;;;;;19.60;66.30;;;;;;5044552;27;89903;-58
2022/10/14 05:59:18;;;;;;;;;;;19.60;66.40;;;;;;5030062;27;90079;-58
2022/10/14 06:01:44;;;;;;;;;;;19.60;66.40;;;;;;5040512;27;91565;-59
2022/10/14 06:04:15;;;;;;;;;;;19.60;66.40;;;;;;5020162;27;92689;-59
2022/10/14 06:06:40;;;;;;;;;;;19.60;66.50;;;;;;5044869;27;95922;-59
2022/10/14 06:09:06;;;;;;;;;;;19.60;67.10;;;;;;5046786;27;90024;-58
2022/10/14 06:11:31;;;;;;;;;;;19.60;66.40;;;;;;5041803;27;89806;-58
2022/10/14 06:13:57;;;;;;;;;;;19.60;66.50;;;;;;5030895;27;90208;-58
2022/10/14 06:16:22;;;;;;;;;;;19.60;66.50;;;;;;5043999;27;89867;-58
2022/10/14 06:18:48;;;;;;;;;;;19.60;66.60;;;;;;5041635;27;89741;-58
2022/10/14 06:21:13;;;;;;;;;;;19.60;66.70;;;;;;5056105;27;93160;-58
2022/10/14 06:23:39;;;;;;;;;;;19.60;66.70;;;;;;5045356;27;94931;-58
2022/10/14 06:26:05;;;;;;;;;;;19.60;66.70;;;;;;5039675;27;92624;-57
2022/10/14 06:28:31;;;;;;;;;;;19.60;66.70;;;;;;5040521;27;90104;-58
2022/10/14 06:30:56;;;;;;;;;;;19.60;66.80;;;;;;5033707;27;90168;-58
2022/10/14 06:33:22;;;;;;;;;;;19.60;66.80;;;;;;5039389;27;89965;-59
2022/10/14 06:35:48;;;;;;;;;;;19.60;66.80;;;;;;5040947;27;90159;-58
2022/10/14 06:38:14;;;;;;;;;;;19.60;67.30;;;;;;5024644;27;89847;-58
2022/10/14 06:40:39;;;;;;;;;;;19.60;66.80;;;;;;5028622;27;93718;-58
2022/10/14 06:43:05;;;;;;;;;;;19.60;66.90;;;;;;5047527;27;89123;-58
2022/10/14 06:45:30;;;;;;;;;;;19.60;66.80;;;;;;5029992;27;90330;-56
2022/10/14 06:47:56;;;;;;;;;;;19.60;67.00;;;;;;5042715;27;90296;-58
2022/10/14 06:50:22;;;;;;;;;;;19.60;67.00;;;;;;5041807;27;90809;-58
2022/10/14 06:52:47;;;;;;;;;;;19.60;67.00;;;;;;5054663;27;90417;-56
2022/10/14 06:55:13;;;;;;;;;;;19.50;67.00;;;;;;5043405;27;91241;-58
2022/10/14 06:57:39;;;;;;;;;;;19.50;67.00;;;;;;5029038;27;90066;-59
2022/10/14 07:00:05;;;;;;;;;;;19.60;67.10;;;;;;5042198;27;91065;-58
2022/10/14 07:02:30;;;;;;;;;;;19.50;67.30;;;;;;5044839;27;90535;-57
2022/10/14 07:04:56;;;;;;;;;;;19.60;67.30;;;;;;5021558;27;90177;-58
2022/10/14 07:07:21;;;;;;;;;;;19.60;67.30;;;;;;5043648;27;93687;-58
2022/10/14 07:09:47;;;;;;;;;;;19.50;67.80;;;;;;5027425;27;91406;-58
2022/10/14 07:12:13;;;;;;;;;;;19.60;67.90;;;;;;5035919;27;90751;-58
2022/10/14 07:14:38;;;;;;;;;;;19.60;67.80;;;;;;5046228;27;92129;-60
2022/10/14 07:17:06;;;;;;;;;;;19.60;67.90;;;;;;5040468;27;96538;-59
2022/10/14 07:19:31;;;;;;;;;;;19.60;68.00;;;;;;5043453;27;92140;-59
2022/10/14 07:21:57;;;;;;;;;;;19.60;68.10;;;;;;5037525;27;90020;-59
2022/10/14 07:24:22;;;;;;;;;;;19.50;68.10;;;;;;5042730;27;89753;-58
2022/10/14 07:26:48;;;;;;;;;;;19.50;68.10;;;;;;5040937;27;91317;-59
2022/10/14 07:29:14;;;;;;;;;;;19.50;68.50;;;;;;5018635;27;98056;-59
2022/10/14 07:31:39;;;;;;;;;;;19.50;68.20;;;;;;5040838;27;90598;-59
2022/10/14 07:34:05;;;;;;;;;;;19.50;68.20;;;;;;5037289;27;91750;-58
2022/10/14 07:36:30;;;;;;;;;;;19.50;68.20;;;;;;5053611;27;90023;-58
2022/10/14 07:38:56;;;;;;;;;;;19.50;68.10;;;;;;5045574;27;91150;-58
2022/10/14 07:41:22;;;;;;;;;;;19.60;68.20;;;;;;5038214;27;91021;-57
2022/10/14 07:43:49;;;;;;;;;;;19.50;68.20;;;;;;5039142;27;89765;-59
2022/10/14 07:46:16;;;;;;;;;;;19.50;68.20;;;;;;5038261;27;91147;-59
2022/10/14 07:48:42;;;;;;;;;;;19.50;68.30;;;;;;5039950;27;90327;-58
2022/10/14 07:51:08;;;;;;;;;;;19.50;68.40;;;;;;5047267;27;93694;-58
2022/10/14 07:53:35;;;;;;;;;;;19.40;68.40;;;;;;5045474;27;90653;-57
2022/10/14 07:56:00;;;;;;;;;;;19.50;68.50;;;;;;5039072;27;90881;-56
2022/10/14 07:58:28;;;;;;;;;;;19.40;68.50;;;;;;5047592;27;92094;-58
2022/10/14 08:00:54;;;;;;;;;;;19.40;68.50;;;;;;5038193;27;91689;-59
2022/10/14 08:03:20;;;;;;;;;;;19.50;68.50;;;;;;5038824;27;90781;-58
2022/10/14 08:05:46;;;;;;;;;;;19.50;68.70;;;;;;5040770;27;90827;-59
2022/10/14 08:08:12;;;;;;;;;;;19.50;69.40;;;;;;5038539;27;90900;-58
2022/10/14 08:10:38;;;;;;;;;;;19.50;68.80;;;;;;5042606;27;90060;-59
2022/10/14 08:13:04;;;;;;;;;;;19.50;68.80;;;;;;5053892;27;90456;-59
2022/10/14 08:15:39;;;;;;;;;;;19.50;68.90;;;;;;5053683;27;90101;-59
2022/10/14 08:18:05;;;;;;;;;;;19.50;68.80;;;;;;5037404;27;90151;-59
2022/10/14 08:20:31;;;;;;;;;;;19.50;68.90;;;;;;5049555;27;89271;-58
2022/10/14 08:22:57;;;;;;;;;;;19.50;68.90;;;;;;5045713;27;91825;-58
2022/10/14 08:25:22;;;;;;;;;;;19.50;69.00;;;;;;5046866;27;89815;-58
2022/10/14 08:27:49;;;;;;;;;;;19.50;69.10;;;;;;5050947;27;91504;-58
2022/10/14 08:30:14;;;;;;;;;;;19.40;69.00;;;;;;5051848;27;89918;-58
2022/10/14 08:32:40;;;;;;;;;;;19.50;69.10;;;;;;5042039;27;90324;-59
2022/10/14 08:35:06;;;;;;;;;;;19.50;69.10;;;;;;5041607;27;90579;-59
2022/10/14 08:37:31;;;;;;;;;;;19.50;69.00;;;;;;5034932;27;90341;-59
2022/10/14 08:39:57;;;;;;;;;;;19.50;69.10;;;;;;5056983;27;91799;-58
2022/10/14 08:42:25;;;;;;;;;;;19.50;69.10;;;;;;5044768;27;90176;-59
2022/10/14 08:44:54;;;;;;;;;;;19.50;69.10;;;;;;5053216;27;93557;-59
2022/10/14 08:47:22;;;;;;;;;;;19.50;69.20;;;;;;5055419;27;90309;-59
2022/10/14 08:49:48;;;;;;;;;;;19.50;69.10;;;;;;5049747;27;90072;-58
2022/10/14 08:52:19;;;;;;;;;;;19.60;69.20;;;;;;5040304;27;90954;-58
2022/10/14 08:54:50;;;;;;;;;;;19.50;69.20;;;;;;5044965;27;95167;-59
2022/10/14 08:57:20;;;;;;;;;;;19.50;69.30;;;;;;5038397;27;89861;-59
2022/10/14 08:59:46;;;;;;;;;;;19.50;70.10;;;;;;5035441;27;90192;-59
2022/10/14 09:02:26;;;;;;;;;;;19.50;69.40;;;;;;5042552;27;89935;-58
2022/10/14 09:04:52;;;;;;;;;;;19.50;69.40;;;;;;5050645;27;89963;-58
2022/10/14 09:07:18;;;;;;;;;;;19.50;69.40;;;;;;5052093;27;90467;-59
2022/10/14 09:09:45;;;;;;;;;;;19.50;69.30;;;;;;5046840;27;89484;-59
2022/10/14 09:12:16;;;;;;;;;;;19.50;69.40;;;;;;5037346;27;95230;-58
2022/10/14 09:14:44;;;;;;;;;;;19.50;69.60;;;;;;5038670;27;95894;-59
2022/10/14 09:17:16;;;;;;;;;;;19.50;69.50;;;;;;5039239;27;91858;-59
2022/10/14 09:19:47;;;;;;;;;;;19.50;69.60;;;;;;5052432;27;90260;-63
2022/10/14 09:22:13;;;;;;;;;;;19.50;69.60;;;;;;5048231;27;91329;-66
2022/10/14 09:24:40;;;;;;;;;;;19.50;69.60;;;;;;5026880;27;91309;-65
2022/10/14 09:27:16;;;;;;;;;;;19.50;69.60;;;;;;5031053;27;90693;-65
2022/10/14 09:29:45;;;;;;;;;;;19.50;69.60;;;;;;5048901;27;90986;-66
2022/10/14 09:32:11;;;;;;;;;;;19.50;69.70;;;;;;5039328;27;90480;-63
2022/10/14 09:34:43;;;;;;;;;;;19.50;69.70;;;;;;5032765;27;89946;-65
2022/10/14 09:37:21;;;;;;;;;;;19.50;69.70;;;;;;5032916;27;89838;-65
2022/10/14 09:39:47;;;;;;;;;;;19.60;69.70;;;;;;5046391;27;89947;-65
2022/10/14 09:42:21;;;;;;;;;;;19.60;69.70;;;;;;5053828;27;94188;-65
2022/10/14 09:45:10;;;;;;;;;;;19.60;69.70;;;;;;5055600;27;89900;-66
2022/10/14 09:47:40;;;;;;;;;;;19.60;69.70;;;;;;5035816;27;93850;-66
2022/10/14 09:50:07;;;;;;;;;;;19.60;69.90;;;;;;5043220;27;90680;-66
2022/10/14 09:52:33;;;;;;;;;;;19.60;70.00;;;;;;5043123;27;91540;-66
2022/10/14 09:55:00;;;;;;;;;;;19.60;70.30;;;;;;5040234;27;90305;-68
2022/10/14 09:57:26;;;;;;;;;;;19.70;70.50;;;;;;5039436;27;89954;-65
2022/10/14 09:59:54;;;;;;;;;;;19.70;70.60;;;;;;5043818;27;92093;-65
2022/10/14 10:02:24;;;;;;;;;;;19.60;70.90;;;;;;5039032;27;90072;-66
2022/10/14 10:04:51;;;;;;;;;;;19.70;71.20;;;;;;5031701;27;90120;-65
2022/10/14 10:07:26;;;;;;;;;;;19.70;71.20;;;;;;5028825;27;92182;-64
2022/10/14 10:09:55;;;;;;;;;;;19.60;71.40;;;;;;5040893;27;95620;-64
2022/10/14 10:12:24;;;;;;;;;;;19.60;71.50;;;;;;5041519;27;90908;-66
2022/10/14 10:15:02;;;;;;;;;;;19.70;71.70;;;;;;5039398;27;89578;-65
2022/10/14 10:17:29;;;;;;;;;;;19.70;71.90;;;;;;5042720;27;94262;-71
2022/10/14 10:20:14;;;;;;;;;;;19.70;72.80;;;;;;5043484;27;93401;-59
2022/10/14 10:22:40;;;;;;;;;;;19.70;74.00;;;;;;5036229;27;92527;-59
2022/10/14 10:25:09;;;;;;;;;;;19.70;73.70;;;;;;5027845;27;89717;-59
2022/10/14 10:27:36;;;;;;;;;;;19.80;73.70;;;;;;5050560;27;89789;-59
2022/10/14 10:30:35;;;;;;;;;;;19.70;74.00;;;;;;5032604;27;94352;-60
2022/10/14 10:33:15;;;;;;;;;;;19.80;74.20;;;;;;5011229;27;95601;-60
2022/10/14 10:36:01;;;;;;;;;;;19.80;74.40;;;;;;5045600;27;90002;-64
2022/10/14 10:38:49;;;;;;;;;;;19.80;74.60;;;;;;5041724;27;90181;-64
2022/10/14 10:41:24;;;;;;;;;;;19.80;74.50;;;;;;5047078;27;90025;-64
2022/10/14 10:43:56;;;;;;;;;;;19.80;74.60;;;;;;5038365;27;90888;-63
2022/10/14 10:46:30;;;;;;;;;;;19.80;74.60;;;;;;5035646;27;89420;-64
2022/10/14 10:49:01;;;;;;;;;;;19.70;74.50;;;;;;5035913;27;92748;-64
2022/10/14 10:51:28;;;;;;;;;;;19.80;74.70;;;;;;5043532;27;90008;-65
2022/10/14 10:54:12;;;;;;;;;;;19.80;75.00;;;;;;5031993;27;90959;-62
2022/10/14 10:56:42;;;;;;;;;;;19.80;74.90;;;;;;5038860;27;89925;-65
2022/10/14 10:59:29;;;;;;;;;;;19.80;74.90;;;;;;5036128;27;91056;-63
2022/10/14 11:02:13;;;;;;;;;;;19.80;75.00;;;;;;5035788;27;91016;-64
2022/10/14 11:05:04;;;;;;;;;;;19.80;75.00;;;;;;5051072;27;91567;-64
2022/10/14 11:13:37;;;;;;;;;;;19.80;74.90;;;;;;5036500;27;90032;-65
2022/10/14 11:16:06;;;;;;;;;;;19.80;74.80;;;;;;5045532;27;90977;-63
2022/10/14 11:18:34;;;;;;;;;;;19.80;74.70;;;;;;5041216;27;89150;-65
2022/10/14 11:21:03;;;;;;;;;;;19.80;74.70;;;;;;5037600;27;90634;-62
2022/10/14 11:23:55;;;;;;;;;;;19.80;74.70;;;;;;5032956;27;90223;-65
2022/10/14 11:26:40;;;;;;;;;;;19.90;74.70;;;;;;5046459;27;95943;-66
2022/10/14 11:29:17;;;;;;;;;;;19.90;74.70;;;;;;5042042;27;89682;-64
2022/10/14 11:31:50;;;;;;;;;;;19.90;74.70;;;;;;5038088;27;89892;-64
2022/10/14 11:34:16;;;;;;;;;;;19.90;74.70;;;;;;5048306;27;90134;-65
2022/10/14 11:37:00;;;;;;;;;;;19.80;74.60;;;;;;5043112;27;89675;-64
2022/10/14 11:39:25;;;;;;;;;;;19.90;74.60;;;;;;5045422;27;89771;-62
2022/10/14 11:42:12;;;;;;;;;;;19.90;74.90;;;;;;5038832;27;90149;-64
2022/10/14 11:44:39;;;;;;;;;;;19.90;75.80;;;;;;5047618;27;89704;-64
2022/10/14 11:47:26;;;;;;;;;;;19.90;76.30;;;;;;5032364;27;89456;-63
2022/10/14 11:50:01;;;;;;;;;;;19.90;76.60;;;;;;5035182;27;89514;-63
2022/10/14 11:52:27;;;;;;;;;;;20.00;76.90;;;;;;5038796;27;90596;-64
2022/10/14 11:54:56;;;;;;;;;;;20.00;77.20;;;;;;5040172;27;92413;-64
2022/10/14 11:57:40;;;;;;;;;;;20.00;77.60;;;;;;5043152;27;90358;-64
2022/10/14 12:00:17;;;;;;;;;;;20.00;78.00;;;;;;5038310;27;89813;-64
2022/10/14 12:03:01;;;;;;;;;;;20.00;78.20;;;;;;5031707;27;91423;-63
2022/10/14 12:05:38;;;;;;;;;;;20.00;78.30;;;;;;5039849;27;92034;-63
2022/10/14 12:08:20;;;;;;;;;;;20.10;78.70;;;;;;5040639;27;91157;-65
2022/10/14 12:10:52;;;;;;;;;;;20.10;79.00;;;;;;5020518;27;96235;-63
2022/10/14 12:13:19;;;;;;;;;;;20.10;79.20;;;;;;5041983;27;90788;-64
2022/10/14 12:15:49;;;;;;;;;;;20.10;79.00;;;;;;5045548;27;91489;-64
2022/10/14 12:18:14;;;;;;;;;;;20.10;79.10;;;;;;5042874;27;91679;-62
2022/10/14 12:20:46;;;;;;;;;;;20.10;79.10;;;;;;5028724;27;90498;-65
2022/10/14 12:23:14;;;;;;;;;;;20.10;79.10;;;;;;5044140;27;89967;-64
2022/10/14 12:25:53;;;;;;;;;;;20.10;79.20;;;;;;5033103;27;89840;-59
2022/10/14 12:28:19;;;;;;;;;;;20.10;79.30;;;;;;5037464;27;89582;-58
2022/10/14 12:30:46;;;;;;;;;;;20.10;79.40;;;;;;5053352;27;89718;-59
2022/10/14 12:33:13;;;;;;;;;;;20.10;79.50;;;;;;5054700;27;91272;-59
2022/10/14 12:35:52;;;;;;;;;;;20.20;79.60;;;;;;5044146;27;92506;-58
2022/10/14 12:38:18;;;;;;;;;;;20.10;79.50;;;;;;5038661;27;89976;-59
2022/10/14 12:40:44;;;;;;;;;;;20.20;79.40;;;;;;5050199;27;92152;-60
2022/10/14 12:43:17;;;;;;;;;;;20.20;79.40;;;;;;5045568;27;91526;-60
2022/10/14 12:46:00;;;;;;;;;;;20.20;79.40;;;;;;5036004;27;90733;-58
2022/10/14 12:48:28;;;;;;;;;;;20.20;79.30;;;;;;5023950;27;90595;-58
2022/10/14 12:51:06;;;;;;;;;;;20.20;79.30;;;;;;5042483;27;91667;-59
2022/10/14 12:53:32;;;;;;;;;;;20.20;79.10;;;;;;5038830;27;93380;-59
2022/10/14 12:56:03;;;;;;;;;;;20.20;79.10;;;;;;5029740;27;98392;-58
2022/10/14 12:58:34;;;;;;;;;;;20.20;79.00;;;;;;5038382;27;91138;-59
2022/10/14 13:01:05;;;;;;;;;;;20.20;78.80;;;;;;5053897;27;89926;-59
2022/10/14 13:03:32;;;;;;;;;;;20.20;78.70;;;;;;5033308;27;92202;-58
2022/10/14 13:06:16;;;;;;;;;;;20.20;78.70;;;;;;5041230;27;91971;-58
2022/10/14 13:08:41;;;;;;;;;;;20.20;78.60;;;;;;5045699;27;92025;-59
2022/10/14 13:11:08;;;;;;;;;;;20.20;78.40;;;;;;5033282;27;89862;-59
2022/10/14 13:13:37;;;;;;;;;;;20.20;78.40;;;;;;5034017;27;90072;-59
2022/10/14 13:16:03;;;;;;;;;;;20.20;78.20;;;;;;5035730;27;90189;-59
2022/10/14 13:18:31;;;;;;;;;;;20.20;78.10;;;;;;5045013;27;91382;-59
2022/10/14 13:20:56;;;;;;;;;;;20.20;78.60;;;;;;5041346;27;93318;-59
2022/10/14 13:23:31;;;;;;;;;;;20.20;77.70;;;;;;5050136;27;91490;-59
2022/10/14 13:26:08;;;;;;;;;;;20.20;77.60;;;;;;5042819;27;89617;-60
2022/10/14 13:28:40;;;;;;;;;;;20.20;77.50;;;;;;5036929;27;89756;-59
2022/10/14 13:31:14;;;;;;;;;;;20.20;77.30;;;;;;5049379;27;95328;-59
2022/10/14 13:33:43;;;;;;;;;;;20.20;77.20;;;;;;5039622;27;93894;-59
2022/10/14 13:36:11;;;;;;;;;;;20.20;77.00;;;;;;5039439;27;91507;-59
2022/10/14 13:38:37;;;;;;;;;;;20.20;76.90;;;;;;5048130;27;90085;-59
2022/10/14 13:41:04;;;;;;;;;;;20.20;76.80;;;;;;5040492;27;92856;-59
2022/10/14 13:43:41;;;;;;;;;;;20.20;76.70;;;;;;5048494;27;90381;-59
2022/10/14 13:46:13;;;;;;;;;;;20.20;76.60;;;;;;5041887;27;94031;-58
2022/10/14 13:48:42;;;;;;;;;;;20.20;76.50;;;;;;5047226;27;90253;-55
2022/10/14 13:51:13;;;;;;;;;;;20.30;76.70;;;;;;5025006;27;89241;-55
2022/10/14 13:53:50;;;;;;;;;;;20.30;76.70;;;;;;5016858;27;91827;-60
2022/10/14 13:56:23;;;;;;;;;;;20.30;76.70;;;;;;5037948;27;92812;-59
2022/10/14 13:58:50;;;;;;;;;;;20.30;76.60;;;;;;5051246;27;90946;-59
2022/10/14 14:01:16;;;;;;;;;;;20.30;76.40;;;;;;5049903;27;89771;-59
2022/10/14 14:03:43;;;;;;;;;;;20.30;76.20;;;;;;5051177;27;90219;-59
2022/10/14 14:06:13;;;;;;;;;;;20.30;76.10;;;;;;5046808;27;92033;-60
2022/10/14 14:08:44;;;;;;;;;;;20.30;75.90;;;;;;5050624;27;90967;-58
2022/10/14 14:11:15;;;;;;;;;;;20.30;75.80;;;;;;5035434;27;94390;-59
2022/10/14 14:13:45;;;;;;;;;;;20.30;75.60;;;;;;5032790;27;90448;-59
2022/10/14 14:16:18;;;;;;;;;;;20.30;75.60;;;;;;5033507;27;89189;-59
2022/10/14 14:18:46;;;;;;;;;;;20.30;75.60;;;;;;5039151;27;90441;-59
2022/10/14 14:21:12;;;;;;;;;;;20.30;75.50;;;;;;5047726;27;90489;-59
2022/10/14 14:23:47;;;;;;;;;;;20.30;75.30;;;;;;5044025;27;91691;-59
2022/10/14 14:26:13;;;;;;;;;;;20.30;75.10;;;;;;5041706;27;95464;-59
2022/10/14 14:28:38;;;;;;;;;;;20.20;75.00;;;;;;5047516;27;91605;-59
2022/10/14 14:31:04;;;;;;;;;;;20.20;74.90;;;;;;5031907;27;91400;-59